Aviation Digital Data Service (ADDS)

Output produced by METARs form (2253 UTC 29 July 2014)
found at http://aviationweather.gov/adds/metars/
 
METAR text: KBFM 292153Z 35009KT 10SM SCT065 32/18 A3000 RMK AO2 SLP157 T03170178
Conditions at: KBFM (MOBILE/BROOKLEY , AL, US) observed 2153 UTC 29 July 2014
Temperature: 31.7°C (89°F)
Dewpoint: 17.8°C (64°F) [RH = 44%]
Pressure (altimeter): 30.00 inches Hg (1016.0 mb)
[Sea-level pressure: 1015.7 mb]
Winds: from the N (350 degrees) at 10 MPH (9 knots; 4.7 m/s)
Visibility: 10 or more miles (16+ km)
Ceiling: at least 12,000 feet AGL
Clouds: scattered clouds at 6500 feet AGL
Weather: no significant weather observed at this time